Weather

Current Metar report

KALM 252055Z AUTO 35003KT 10SM CLR 32/00 A3003 RMK AO2


Metar history is on Flightaware.

KALM AWOS Info
Phone Number: 575-439-4112
Freq: 127.825 MHz

KALM Weather Links

Soaring Forecasts Links